Latest Weather Observations for Essendon Airport

IDV60901

Issued at 6:11 am EST Friday 26 August 2016 (issued every 10 minutes, with the page automatically refreshed every 10 minutes)

About weather observations | Map of Melbourne area stations | Latest observations for Melbourne area | Other Formats
Station Details ID: 086038 Name: ESSENDON AIRPORT Lat: -37.73 Lon: 144.91 Height: 78.4 m
Data from the previous 72 hours. | See also: Recent months at Essendon Airport
Date/Time
EST
Temp
°C
App
Temp
°C
Dew
Point
°C
Rel
Hum
%
Delta-T
°C
Wind Press
QNH
hPa
Press
MSL
hPa
Rain since
9am
mm
Dir  Spd
km/h
Gust
km/h
Spd
kts
Gust
kts
26/06:00am 6.8 3.0 5.6 92 0.5 WNW 15 19 8 10 1020.8 1020.9 0.2
26/05:30am 6.3 2.8 5.3 93 0.4 WNW 13 17 7 9 1020.5 1020.6 0.2
26/05:00am 6.4 2.4 5.0 91 0.6 W 15 20 8 11 1020.2 1020.3 0.2
26/04:30am 6.8 3.3 5.4 91 0.6 W 13 20 7 11 1019.8 1019.9 0.2
26/04:00am 6.8 2.9 5.3 90 0.7 W 15 20 8 11 1019.5 1019.6 0.2
26/03:30am 7.0 2.7 5.3 89 0.8 W 17 20 9 11 1019.5 1019.6 0.2
26/03:00am 6.8 3.7 5.7 93 0.5 W 11 17 6 9 1019.6 1019.7 0.2
26/02:30am 5.6 2.3 4.6 93 0.4 W 11 13 6 7 1019.6 1019.7 0.2
26/02:00am 5.7 2.0 4.7 93 0.4 WNW 13 15 7 8 1019.7 1019.8 0.2
26/01:30am 6.1 2.5 5.2 94 0.4 WNW 13 15 7 8 1019.8 1019.9 0.2
26/01:00am 6.4 2.9 5.4 93 0.4 WNW 13 17 7 9 1019.7 1019.8 0.2
26/12:30am 6.8 3.4 5.7 93 0.5 W 13 17 7 9 1019.7 1019.8 0.2
26/12:00am 7.3 3.9 5.9 91 0.6 W 13 17 7 9 1019.5 1019.6 0.2
 
Date/Time
EST
Temp
°C
App
Temp
°C
Dew
Point
°C
Rel
Hum
%
Delta-T
°C
Wind Press
QNH
hPa
Press
MSL
hPa
Rain since
9am
mm
Dir  Spd
km/h
Gust
km/h
Spd
kts
Gust
kts
25/11:30pm 6.9 3.3 5.1 88 0.8 W 13 17 7 9 1019.5 1019.6 0.2
25/11:00pm 7.5 4.0 5.6 88 0.9 W 13 17 7 9 1019.3 1019.4 0.2
25/10:30pm 7.6 4.2 5.9 89 0.8 W 13 17 7 9 1019.3 1019.4 0.2
25/10:00pm 6.9 3.3 5.2 89 0.8 W 13 15 7 8 1019.3 1019.4 0.2
25/09:30pm 7.6 3.7 5.4 86 1.0 W 15 17 8 9 1019.1 1019.2 0.2
25/09:00pm 8.3 4.9 6.1 86 1.0 W 13 15 7 8 1019.0 1019.1 0.2
25/08:30pm 8.1 4.8 6.2 88 0.9 WSW 13 15 7 8 1018.8 1018.9 0.2
25/08:00pm 8.2 4.8 5.8 85 1.1 WSW 13 20 7 11 1018.6 1018.7 0.2
25/07:30pm 8.6 4.9 6.1 84 1.1 SW 15 19 8 10 1018.2 1018.3 0.2
25/07:00pm 8.4 5.0 5.7 83 1.2 SW 13 17 7 9 1017.9 1018.0 0.2
25/06:30pm 8.7 5.3 5.8 82 1.3 SW 13 17 7 9 1017.4 1017.5 0.0
25/06:00pm 9.1 5.2 5.5 78 1.6 SW 15 20 8 11 1017.0 1017.1 0.0
25/05:30pm 10.0 5.4 5.4 73 2.1 SSW 19 24 10 13 1016.7 1016.8 0.0
25/05:00pm 10.9 6.0 5.2 68 2.6 S 20 32 11 17 1016.3 1016.4 0.0
25/04:30pm 11.1 5.9 5.4 68 2.6 SSW 22 30 12 16 1016.0 1016.1 0.0
25/04:00pm 11.8 6.2 5.4 65 3.0 S 24 30 13 16 1016.0 1016.1 0.0
25/03:30pm 12.2 6.6 5.4 63 3.2 SSW 24 39 13 21 1015.7 1015.8 0.0
25/03:00pm 12.7 7.4 7.0 68 2.8 SSW 24 32 13 17 1015.6 1015.7 0.0
25/02:30pm 13.1 8.3 5.5 60 3.6 SSW 20 28 11 15 1015.3 1015.4 0.0
25/02:00pm 11.3 6.1 5.4 67 2.7 SSW 22 32 12 17 1015.0 1015.2 0.0
25/01:30pm 12.1 6.1 5.5 64 3.1 SSW 26 35 14 19 1014.9 1015.1 0.0
25/01:00pm 12.3 5.9 5.2 62 3.3 SW 28 39 15 21 1014.9 1015.1 0.0
25/12:30pm 11.5 5.8 4.9 64 3.0 SSW 24 33 13 18 1015.2 1015.3 0.0
25/12:00pm 11.1 5.5 5.2 67 2.7 SW 24 32 13 17 1015.3 1015.4 0.0
25/11:30am 11.7 5.8 5.8 67 2.8 SW 26 33 14 18 1015.5 1015.6 0.0
25/11:00am 10.5 5.5 6.3 75 2.0 SSW 22 35 12 19 1015.5 1015.6 0.0
25/10:30am 10.2 6.2 6.5 78 1.7 SW 17 24 9 13 1015.2 1015.3 0.0
25/10:00am 10.4 6.3 7.8 84 1.3 SW 19 26 10 14 1015.0 1015.2 0.0
25/09:30am 8.9 5.6 8.0 94 0.4 W 15 24 8 13 1014.9 1015.1 0.0
25/09:02am 8.3 4.3 8.2 99 0.0 W 19 28 10 15 1014.9 1015.1 0.0
25/09:00am 7.8 3.5 7.7 99 0.0 W 20 28 11 15 1014.9 1015.1 0.6
25/08:42am 7.5 3.7 7.4 99 0.0 WSW 17 22 9 12 1014.9 1015.1 0.6
25/08:30am 6.5 2.8 6.4 99 0.0 W 15 20 8 11 1014.9 1015.1 0.6
25/08:00am 6.8 4.3 6.4 97 0.2 SW 9 15 5 8 1014.5 1014.7 0.0
25/07:30am 6.5 2.8 6.2 98 0.1 W 15 17 8 9 1014.1 1014.2 0.0
25/07:00am 6.4 2.3 6.1 98 0.1 W 17 20 9 11 1013.9 1014.0 0.0
25/06:30am 6.3 2.6 6.2 99 0.0 W 15 19 8 10 1013.7 1013.8 0.0
25/06:00am 6.5 3.1 6.1 97 0.2 SSW 13 17 7 9 1013.5 1013.6 0.0
25/05:30am 6.4 3.0 5.8 96 0.3 W 13 19 7 10 1013.2 1013.3 0.0
25/05:00am 6.3 2.5 5.6 95 0.3 W 15 20 8 11 1013.0 1013.1 0.0
25/04:30am 5.9 1.5 4.9 93 0.4 W 17 22 9 12 1012.8 1012.9 0.0
25/04:00am 6.5 2.3 5.5 93 0.4 WSW 17 20 9 11 1012.7 1012.8 0.0
25/03:30am 6.4 2.1 5.2 92 0.5 W 17 22 9 12 1012.7 1012.8 0.0
25/03:00am 6.2 2.2 4.8 91 0.6 W 15 19 8 10 1012.8 1012.9 0.0
25/02:30am 6.6 1.9 5.1 90 0.7 W 19 22 10 12 1013.0 1013.1 0.0
25/02:00am 6.9 2.3 5.5 91 0.6 W 19 24 10 13 1013.1 1013.2 0.0
25/01:30am 6.8 3.3 5.6 92 0.5 W 13 19 7 10 1013.3 1013.4 0.0
25/01:00am 6.3 2.8 5.3 93 0.4 W 13 17 7 9 1013.5 1013.6 0.0
25/12:30am 6.1 2.1 5.1 93 0.4 W 15 19 8 10 1013.5 1013.6 0.0
25/12:00am 6.1 2.5 4.9 92 0.5 WSW 13 17 7 9 1013.5 1013.6 0.0
 
Date/Time
EST
Temp
°C
App
Temp
°C
Dew
Point
°C
Rel
Hum
%
Delta-T
°C
Wind Press
QNH
hPa
Press
MSL
hPa
Rain since
9am
mm
Dir  Spd
km/h
Gust
km/h
Spd
kts
Gust
kts
24/11:30pm 6.6 3.0 5.1 90 0.7 WSW 13 17 7 9 1013.6 1013.7 0.0
24/11:00pm 7.6 3.8 5.9 89 0.8 WSW 15 19 8 10 1013.7 1013.8 0.0
24/10:30pm 8.0 4.6 5.8 86 1.0 WSW 13 15 7 8 1013.9 1014.0 0.0
24/10:00pm 9.3 5.8 5.5 77 1.7 SSW 13 17 7 9 1014.1 1014.2 0.0
24/09:30pm 9.5 6.1 5.9 78 1.7 S 13 17 7 9 1014.1 1014.2 0.0
24/09:00pm 9.6 6.6 6.1 79 1.6 S 11 13 6 7 1014.1 1014.2 0.0
24/08:30pm 9.8 6.8 6.0 77 1.8 S 11 17 6 9 1014.1 1014.2 0.0
24/08:00pm 9.7 6.3 5.9 77 1.8 S 13 17 7 9 1014.1 1014.2 0.0
24/07:30pm 9.6 5.9 6.5 81 1.4 S 15 22 8 12 1014.2 1014.3 0.0
24/07:00pm 9.6 5.7 6.9 83 1.3 S 17 24 9 13 1014.0 1014.1 0.0
24/06:30pm 9.7 5.7 6.6 81 1.5 S 17 22 9 12 1013.8 1013.9 0.0
24/06:00pm 9.7 5.3 6.6 81 1.5 S 19 24 10 13 1013.5 1013.6 0.0
24/05:30pm 9.7 5.2 7.1 84 1.2 S 20 26 11 14 1013.4 1013.5 0.0
24/05:00pm 9.8 5.3 6.9 82 1.4 S 20 26 11 14 1013.2 1013.3 0.0
24/04:30pm 10.4 5.5 6.9 79 1.7 S 22 30 12 16 1013.1 1013.2 0.0
24/04:00pm 11.1 5.6 6.0 71 2.4 S 24 32 13 17 1013.0 1013.1 0.0
24/03:30pm 11.6 7.2 7.5 76 2.0 S 20 28 11 15 1013.0 1013.1 0.0
24/03:00pm 11.8 7.0 5.7 66 2.8 S 20 26 11 14 1013.0 1013.1 0.0
24/02:30pm 12.1 7.9 5.9 66 2.9 S 17 22 9 12 1013.2 1013.3 0.0
24/02:00pm 11.7 7.8 5.3 65 3.0 S 15 19 8 10 1013.4 1013.5 0.0
24/01:30pm 12.6 9.3 6.4 66 3.0 SSW 13 20 7 11 1013.6 1013.7 0.0
24/01:00pm 12.2 9.3 6.7 69 2.6 SSW 11 20 6 11 1013.9 1014.0 0.0
24/12:30pm 12.0 8.7 6.3 68 2.7 S 13 20 7 11 1014.3 1014.4 0.0
24/12:00pm 11.6 8.7 6.3 70 2.5 SE 11 19 6 10 1014.7 1014.9 0.0
24/11:30am 11.1 7.7 5.8 70 2.5 SSE 13 20 7 11 1015.2 1015.3 0.0
24/11:06am 11.1 7.9 7.0 76 2.0 SSE 13 19 7 10 1015.4 1015.5 0.0
24/11:00am 10.8 7.6 6.9 77 1.9 SE 13 19 7 10 1015.4 1015.5 0.0
24/10:30am 10.2 8.1 8.1 87 1.0 SW 9 15 5 8 1015.8 1015.9 0.0
24/10:10am 9.4 7.6 8.0 91 0.7 SW 7 11 4 6 1016.0 1016.1 0.0
24/10:08am 9.4 7.7 8.2 92 0.6 SW 7 11 4 6 1016.0 1016.1 0.0
24/10:00am 9.5 7.9 8.9 96 0.3 WSW 7 11 4 6 1016.0 1016.1 0.0
24/09:30am 8.1 6.3 8.0 99 0.0 W 7 11 4 6 1016.2 1016.3 0.0
24/09:29am 8.3 6.7 8.2 99 0.0 W 6 11 3 6 1016.2 1016.3 0.0
24/09:12am 7.4 5.6 7.3 99 0.0 W 6 7 3 4 1016.4 1016.5 0.0
24/09:00am 7.1 5.3 7.1 100 0.0 WSW 6 9 3 5 1016.4 1016.5 0.0
24/08:30am 6.4 4.2 6.4 100 0.0 WSW 7 9 4 5 1016.6 1016.7 0.0
24/08:24am 6.2 4.2 6.2 100 0.0 W 6 9 3 5 1016.6 1016.7 0.0
24/08:00am 5.3 2.9 5.3 100 0.0 NW 7 9 4 5 1016.4 1016.5 0.0
24/07:51am 4.4 2.4 4.3 99 0.0 NW 4 7 2 4 1016.4 1016.5 0.0
24/07:34am 3.4 0.8 3.3 99 0.0 NW 6 7 3 4 1016.5 1016.6 0.0
24/07:30am 3.3 0.7 3.2 99 0.0 NW 6 7 3 4 1016.4 1016.5 0.0
24/07:00am 2.9 0.2 2.8 99 0.0 NNW 6 11 3 6 1016.5 1016.6 0.0
24/06:30am 2.8 0.1 2.7 99 0.0 N 6 6 3 3 1016.4 1016.5 0.0
24/06:28am 3.1 0.5 3.0 99 0.0 N 6 7 3 4 1016.4 1016.5 0.0
24/06:22am 2.9 0.0 2.8 99 0.0 N 7 7 4 4 1016.5 1016.6 0.0
24/06:03am 2.9 1.0 2.8 99 0.0 NE 2 7 1 4 1016.3 1016.4 0.0
24/06:00am 2.7 1.1 2.6 99 0.0 CALM 0 7 0 4 1016.3 1016.4 0.0
24/05:59am 2.8 1.2 2.7 99 0.0 CALM 0 6 0 3 1016.3 1016.4 0.0
24/05:43am 3.2 1.3 3.1 99 0.0 ENE 2 7 1 4 1016.2 1016.3 0.0
24/05:30am 3.1 1.6 3.0 99 0.0 CALM 0 4 0 2 1016.2 1016.3 0.0
24/05:00am 3.8 1.3 3.7 99 0.0 WNW 6 9 3 5 1016.2 1016.3 0.0
24/04:30am 4.8 1.5 4.7 99 0.0 WNW 11 13 6 7 1016.1 1016.2 0.0
24/04:00am 4.8 1.5 4.7 99 0.0 WNW 11 13 6 7 1016.1 1016.2 0.0
24/03:55am 4.8 1.5 4.7 99 0.0 WNW 11 13 6 7 1016.1 1016.2 0.0
24/03:30am 3.9 0.8 3.8 99 0.0 NW 9 13 5 7 1016.1 1016.2 0.0
24/03:26am 4.3 1.3 4.2 99 0.0 NW 9 13 5 7 1016.2 1016.3 0.0
24/03:14am 4.8 1.9 4.7 99 0.0 NW 9 13 5 7 1016.3 1016.4 0.0
24/03:00am 4.6 1.3 4.5 99 0.0 NW 11 13 6 7 1016.4 1016.5 0.0
24/02:49am 4.2 0.8 4.1 99 0.0 NW 11 13 6 7 1016.6 1016.7 0.0
24/02:30am 4.7 1.0 4.6 99 0.0 NW 13 15 7 8 1016.7 1016.8 0.0
24/02:00am 5.0 1.8 4.9 99 0.0 WNW 11 13 6 7 1016.8 1016.9 0.0
24/01:30am 4.6 1.3 4.3 98 0.1 W 11 13 6 7 1016.8 1016.9 0.0
24/01:00am 5.5 2.4 5.4 99 0.0 WNW 11 11 6 6 1017.2 1017.3 0.0
24/12:30am 5.3 2.1 5.0 98 0.1 WNW 11 13 6 7 1017.4 1017.5 0.0
24/12:00am 5.8 2.3 5.5 98 0.1 WNW 13 15 7 8 1017.6 1017.7 0.0
 
Date/Time
EST
Temp
°C
App
Temp
°C
Dew
Point
°C
Rel
Hum
%
Delta-T
°C
Wind Press
QNH
hPa
Press
MSL
hPa
Rain since
9am
mm
Dir  Spd
km/h
Gust
km/h
Spd
kts
Gust
kts
23/11:30pm 5.1 2.2 4.5 96 0.3 N 9 11 5 6 1017.6 1017.7 0.0
23/11:00pm 5.5 3.1 4.5 93 0.4 N 6 9 3 5 1017.6 1017.7 0.0
23/10:30pm 6.9 5.0 5.1 88 0.8 SSE 4 6 2 3 1017.6 1017.7 0.0
23/10:00pm 7.1 4.9 5.1 87 0.9 S 6 7 3 4 1017.5 1017.6 0.0
23/09:30pm 7.6 5.3 4.9 83 1.2 SSE 6 6 3 3 1017.7 1017.8 0.0
23/09:00pm 8.4 7.4 5.7 83 1.2 CALM 0 0 0 0 1017.9 1018.0 0.0
23/08:30pm 7.9 6.4 5.2 83 1.2 SE 2 6 1 3 1017.8 1017.9 0.0
23/08:00pm 8.3 5.9 5.1 80 1.4 SSE 7 9 4 5 1017.5 1017.6 0.0
23/07:30pm 8.5 5.7 5.1 79 1.5 SSE 9 11 5 6 1017.5 1017.6 0.0
23/07:00pm 8.8 6.0 5.0 77 1.7 S 9 13 5 7 1017.4 1017.5 0.0
23/06:30pm 9.4 6.1 4.6 72 2.1 S 11 15 6 8 1017.3 1017.4 0.0
23/06:00pm 9.9 5.8 4.3 68 2.5 S 15 20 8 11 1017.4 1017.5 0.0
23/05:30pm 10.7 6.6 4.4 65 2.8 S 15 20 8 11 1017.5 1017.6 0.0
23/05:00pm 11.0 6.1 4.0 62 3.1 SSE 19 22 10 12 1017.3 1017.4 0.0
23/04:30pm 11.9 7.5 4.6 61 3.3 S 17 22 9 12 1017.3 1017.4 0.0
23/04:00pm 12.1 7.7 5.0 62 3.3 SSW 17 24 9 13 1017.2 1017.3 0.0
23/03:30pm 12.3 7.9 5.0 61 3.4 S 17 20 9 11 1017.0 1017.1 0.0
23/03:00pm 12.7 9.4 4.4 57 3.8 S 11 19 6 10 1016.7 1016.8 0.0
23/02:30pm 12.8 9.2 4.8 58 3.7 SSW 13 20 7 11 1016.5 1016.6 0.0
23/02:00pm 12.6 8.1 4.1 56 3.9 SSW 17 22 9 12 1016.3 1016.4 0.0
23/01:30pm 12.7 8.0 3.4 53 4.2 SSW 17 22 9 12 1016.2 1016.3 0.0
23/01:00pm 12.7 8.4 3.4 53 4.2 S 15 20 8 11 1016.3 1016.4 0.0
23/12:30pm 12.8 8.4 4.5 57 3.8 S 17 30 9 16 1016.6 1016.7 0.0
23/12:00pm 12.7 8.9 3.9 55 4.0 SSE 13 22 7 12 1016.8 1016.9 0.0
23/11:30am 12.1 8.0 4.1 58 3.6 S 15 20 8 11 1017.1 1017.2 0.0
23/11:00am 12.2 8.2 4.7 60 3.4 SSW 15 24 8 13 1017.4 1017.5 0.0
23/10:30am 11.5 8.2 4.3 61 3.3 SSW 11 15 6 8 1017.7 1017.8 0.0
23/10:00am 11.2 6.8 4.9 65 2.9 SE 17 20 9 11 1017.9 1018.0 0.0
23/09:30am 10.8 9.1 8.2 84 1.3 S 7 13 4 7 1017.9 1018.0 0.0
23/09:00am 9.7 8.5 9.6 99 0.0 SW 6 7 3 4 1018.0 1018.1 8.8
23/08:30am 8.8 7.2 8.8 100 0.0 W 7 9 4 5 1017.8 1017.9 8.8
23/08:00am 7.8 5.2 7.8 100 0.0 W 11 13 6 7 1017.6 1017.7 8.8
23/07:30am 6.7 3.8 6.7 100 0.0 W 11 13 6 7 1017.3 1017.4 8.8
23/07:00am 6.2 3.6 6.2 100 0.0 W 9 11 5 6 1016.9 1017.0 8.8
23/06:30am 7.0 4.6 7.0 100 0.0 WSW 9 11 5 6 1016.6 1016.7 8.8

Latest Capital City Observations: Canberra | Sydney | Melbourne | Brisbane | Adelaide | Perth | Hobart | Darwin

Other Formats:

Comma delimited format used in spreadsheet applications
http://www.bom.gov.au/fwo/IDV60901/IDV60901.95866.axf

JavaScript Object Notation format (JSON) in row-major order
http://www.bom.gov.au/fwo/IDV60901/IDV60901.95866.json